Burlington, West Virginia
Current Conditions -  °F | °C
As of 5:17 PM on Sunday 25 Jan 2015 (Local Time) from KCBE Reporting Station
Broken Clouds Broken Clouds  
Wind Chill: 41°   Ceiling: 900
Heat Index: 41°   Visibility: 10mi
Dew Point: 34°   Wind: 0mph
Humidity: 76%   Direction: NA
Pressure: 29.83"   Gusts: NA
Location:  39.34°N, 78.92°W
Report Text: KCBE 252217Z AUTO 00000KT 10SM BKN009 BKN018 BKN030 05/01 A2983 RMK AO1
Loading
Personal Weather Stations






























Interactive Weather Map New forecast layout! Learn more

10-Day Weather Forecast

Advertisements
Track Severe Weather on mobile